Time;durP1;ratioP1;P1;durP2;ratioP2;P2;SDS_P1;SDS_P2;PMS_P1;PMS_P2;Temp;Humidity;BMP_temperature;BMP_pressure;BME280_temperature;BME280_humidity;BME280_pressure;Samples;Min_cycle;Max_cycle;Signal;HPM_P1;HPM_P2
2024/04/23 00:00:00;;;;;;;0.10;0.10;;;;;;;7.01;52.13;102515.28;5530524;25;20069;-81
2024/04/23 00:02:26;;;;;;;0.10;0.10;;;;;;;7.04;51.43;102520.63;5524114;25;20000;-81
2024/04/23 00:04:52;;;;;;;0.10;0.10;;;;;;;7.05;51.41;102514.53;5520348;26;20005;-82
2024/04/23 00:07:19;;;;;;;0.10;0.10;;;;;;;7.02;52.11;102513.56;5528098;25;20041;-82
2024/04/23 00:09:47;;;;;;;0.10;0.10;;;;;;;7.02;51.88;102513.56;5525444;25;20001;-81
2024/04/23 00:12:13;;;;;;;0.10;0.10;;;;;;;7.02;51.60;102519.72;5528873;25;20002;-81
2024/04/23 00:14:39;;;;;;;0.10;0.10;;;;;;;7.01;51.37;102512.66;5525867;25;19993;-82
2024/04/23 00:17:06;;;;;;;0.10;0.10;;;;;;;7.02;51.42;102513.56;5523196;26;20016;-82
2024/04/23 00:19:32;;;;;;;0.10;0.10;;;;;;;7.01;52.76;102509.13;5525345;25;19996;-81
2024/04/23 00:21:59;;;;;;;0.10;0.10;;;;;;;6.99;51.32;102516.13;5526702;25;19998;-81
2024/04/23 00:24:25;;;;;;;0.10;0.10;;;;;;;6.96;51.29;102503.75;5525636;25;19993;-81
2024/04/23 00:29:46;;;;;;;0.00;0.00;;;;;;;6.93;52.11;102503.72;5460601;25;20343;-77
2024/04/23 00:32:12;;;;;;;0.10;0.10;;;;;;;6.94;51.77;102498.47;5438698;26;20007;-78
2024/04/23 00:34:38;;;;;;;0.10;0.10;;;;;;;6.94;53.16;102497.56;5425755;26;20003;-80
2024/04/23 00:37:04;;;;;;;0.10;0.10;;;;;;;6.93;52.93;102490.53;5402583;26;20355;-80
2024/04/23 00:39:31;;;;;;;0.10;0.10;;;;;;;6.93;51.63;102493.16;5407862;26;19992;-80
2024/04/23 00:41:59;;;;;;;0.10;0.10;;;;;;;6.93;51.83;102488.78;5402016;26;20000;-80
2024/04/23 00:44:25;;;;;;;0.10;0.10;;;;;;;6.90;53.05;102487.81;5430854;26;20466;-80
2024/04/23 00:46:52;;;;;;;0.20;0.20;;;;;;;6.87;53.37;102482.50;5425303;26;19991;-80
2024/04/23 00:49:19;;;;;;;0.10;0.10;;;;;;;6.85;53.75;102484.19;5409804;26;20010;-80
2024/04/23 00:51:49;;;;;;;0.10;0.10;;;;;;;6.86;53.48;102481.59;5422318;26;19995;-80
2024/04/23 00:54:17;;;;;;;0.10;0.10;;;;;;;6.84;52.84;102482.41;5412319;26;20018;-79
2024/04/23 00:56:44;;;;;;;0.10;0.10;;;;;;;6.81;53.13;102472.69;5410698;26;20342;-80
2024/04/23 00:59:14;;;;;;;0.10;0.10;;;;;;;6.82;52.66;102468.31;5420381;26;20019;-79
2024/04/23 01:01:40;;;;;;;0.30;0.30;;;;;;;6.78;53.61;102473.53;5414082;26;20000;-80
2024/04/23 01:04:06;;;;;;;0.10;0.10;;;;;;;6.74;53.85;102465.50;5402272;26;20011;-80
2024/04/23 01:06:33;;;;;;;0.10;0.10;;;;;;;6.73;54.03;102474.25;5398863;26;20000;-80
2024/04/23 01:08:59;;;;;;;0.10;0.10;;;;;;;6.72;53.60;102468.13;5417570;26;20429;-80
2024/04/23 01:11:26;;;;;;;0.10;0.10;;;;;;;6.70;53.59;102475.09;5425521;26;19995;-78
2024/04/23 01:13:52;;;;;;;0.10;0.10;;;;;;;6.69;53.68;102467.16;5427917;26;19992;-78
2024/04/23 01:16:23;;;;;;;0.10;0.10;;;;;;;6.70;53.42;102466.31;5420268;26;20000;-78
2024/04/23 01:18:51;;;;;;;0.10;0.10;;;;;;;6.65;54.05;102466.19;5419466;26;20000;-78
2024/04/23 01:21:23;;;;;;;0.10;0.10;;;;;;;6.66;53.94;102464.47;5415550;26;20011;-79
2024/04/23 01:23:57;;;;;;;0.10;0.10;;;;;;;6.65;53.94;102455.66;5417251;26;20011;-78
2024/04/23 01:26:25;;;;;;;0.10;0.10;;;;;;;6.64;52.59;102452.16;5426804;26;20002;-76
2024/04/23 01:28:52;;;;;;;0.10;0.10;;;;;;;6.64;52.93;102454.78;5430184;26;20000;-77
2024/04/23 01:31:19;;;;;;;0.10;0.10;;;;;;;6.64;53.32;102448.59;5429518;26;19995;-79
2024/04/23 01:33:48;;;;;;;0.10;0.10;;;;;;;6.66;53.13;102446.91;5423745;26;20007;-77
2024/04/23 01:36:15;;;;;;;0.10;0.10;;;;;;;6.67;53.20;102443.44;5424857;26;20006;-78
2024/04/23 01:38:43;;;;;;;0.10;0.10;;;;;;;6.66;53.58;102446.91;5416942;26;20399;-78
2024/04/23 01:41:10;;;;;;;0.10;0.10;;;;;;;6.68;53.32;102442.56;5384289;26;20078;-78
2024/04/23 01:43:37;;;;;;;0.10;0.10;;;;;;;6.69;53.62;102447.00;5402603;26;20003;-78
2024/04/23 01:46:04;;;;;;;0.10;0.10;;;;;;;6.71;53.06;102447.91;5405631;26;20485;-77
2024/04/23 01:48:31;;;;;;;0.00;0.00;;;;;;;6.69;53.53;102444.34;5413401;26;20007;-79
2024/04/23 01:50:57;;;;;;;1.48;1.38;;;;;;;6.70;53.21;102437.34;5400627;26;20003;-78
2024/04/23 01:53:23;;;;;;;0.10;0.10;;;;;;;6.71;53.80;102433.84;5400567;26;20008;-77
2024/04/23 01:55:50;;;;;;;0.10;0.10;;;;;;;6.70;54.39;102432.94;5382927;26;19996;-78
2024/04/23 01:58:17;;;;;;;0.10;0.10;;;;;;;6.69;54.13;102431.19;5403656;26;20005;-79
2024/04/23 02:00:45;;;;;;;0.00;0.00;;;;;;;6.68;53.67;102431.13;5409443;26;20024;-78
2024/04/23 02:03:12;;;;;;;0.10;0.10;;;;;;;6.64;54.14;102431.06;5386071;26;19996;-78
2024/04/23 02:05:41;;;;;;;0.10;0.10;;;;;;;6.65;54.05;102439.84;5402172;26;20000;-79
2024/04/23 02:08:07;;;;;;;0.10;0.10;;;;;;;6.67;53.45;102432.88;5387995;26;20003;-79
2024/04/23 02:10:37;;;;;;;0.10;0.10;;;;;;;6.68;53.72;102426.78;5395891;26;20012;-79
2024/04/23 02:13:07;;;;;;;0.10;0.10;;;;;;;6.69;54.29;102433.81;5401156;26;20002;-79
2024/04/23 02:15:34;;;;;;;0.10;0.10;;;;;;;6.64;53.44;102435.44;5389537;26;20020;-77
2024/04/23 02:18:00;;;;;;;0.10;0.10;;;;;;;6.66;53.30;102435.50;5399690;26;20447;-79
2024/04/23 02:20:26;;;;;;;0.10;0.10;;;;;;;6.65;54.52;102434.59;5403424;26;20007;-79
2024/04/23 02:22:53;;;;;;;0.10;0.10;;;;;;;6.62;54.75;102435.41;5392961;26;20674;-78
2024/04/23 02:25:20;;;;;;;0.10;0.10;;;;;;;6.61;55.17;102432.75;5388304;26;20028;-78
2024/04/23 02:27:47;;;;;;;0.10;0.10;;;;;;;6.60;54.71;102433.59;5395007;26;19996;-78
2024/04/23 02:30:13;;;;;;;0.10;0.10;;;;;;;6.56;55.20;102429.13;5383533;26;20012;-78
2024/04/23 02:32:39;;;;;;;0.10;0.10;;;;;;;6.58;54.57;102430.03;5381172;26;20007;-79
2024/04/23 02:35:05;;;;;;;0.10;0.10;;;;;;;6.56;54.70;102429.13;5402564;26;20532;-79
2024/04/23 02:37:32;;;;;;;0.10;0.10;;;;;;;6.50;55.66;102423.72;5396992;26;20000;-80
2024/04/23 02:39:58;;;;;;;0.10;0.10;;;;;;;6.48;55.17;102416.69;5387192;26;19996;-79
2024/04/23 02:42:24;;;;;;;0.10;0.10;;;;;;;6.47;55.07;102419.28;5403771;26;20339;-79
2024/04/23 02:44:50;;;;;;;0.10;0.10;;;;;;;6.44;55.61;102421.84;5390000;26;20000;-80
2024/04/23 02:47:17;;;;;;;0.10;0.10;;;;;;;6.40;55.42;102412.97;5396685;26;19996;-79
2024/04/23 02:49:43;;;;;;;0.10;0.10;;;;;;;6.37;55.88;102409.38;5393789;26;20011;-79
2024/04/23 02:52:09;;;;;;;0.10;0.10;;;;;;;6.36;55.47;102410.25;5396247;26;20011;-79
2024/04/23 02:54:35;;;;;;;0.10;0.10;;;;;;;6.32;55.57;102409.28;5395316;26;20326;-80
2024/04/23 02:57:02;;;;;;;0.10;0.10;;;;;;;6.29;55.81;102411.84;5394413;26;20004;-81
2024/04/23 02:59:28;;;;;;;0.10;0.10;;;;;;;6.25;55.89;102407.38;5396449;26;20003;-81
2024/04/23 03:02:10;;;;;;;0.13;0.13;;;;;;;6.29;56.51;102401.31;5401200;26;20352;-80
2024/04/23 03:04:37;;;;;;;0.20;0.20;;;;;;;6.20;56.21;102409.00;5382483;26;20312;-80
2024/04/23 03:07:03;;;;;;;0.10;0.10;;;;;;;6.15;57.14;102407.13;5388062;26;20004;-80
2024/04/23 03:09:29;;;;;;;0.10;0.10;;;;;;;6.11;57.38;102397.41;5389731;26;20074;-81
2024/04/23 03:11:55;;;;;;;0.10;0.10;;;;;;;6.09;56.60;102407.03;5383474;26;20055;-80
2024/04/23 03:14:22;;;;;;;0.10;0.10;;;;;;;6.05;57.65;102397.25;5385179;26;20471;-79
2024/04/23 03:16:48;;;;;;;0.10;0.10;;;;;;;6.02;57.48;102402.47;5385800;26;20004;-79
2024/04/23 03:19:14;;;;;;;0.10;0.10;;;;;;;5.99;57.75;102397.09;5406033;26;20007;-80
2024/04/23 03:21:50;;;;;;;0.10;0.10;;;;;;;5.99;57.60;102395.38;5386673;26;20023;-80
2024/04/23 03:24:17;;;;;;;0.10;0.10;;;;;;;5.91;58.16;102396.03;5389454;26;20467;-79
2024/04/23 03:26:43;;;;;;;0.10;0.10;;;;;;;5.91;58.07;102396.03;5395856;26;19996;-79
2024/04/23 03:29:09;;;;;;;0.10;0.10;;;;;;;5.89;57.95;102395.09;5378709;26;20001;-78
2024/04/23 03:31:35;;;;;;;0.10;0.10;;;;;;;5.87;57.82;102395.06;5395061;26;20004;-79
2024/04/23 03:34:01;;;;;;;0.10;0.10;;;;;;;5.86;58.49;102389.72;5390444;26;20018;-79
2024/04/23 03:36:27;;;;;;;0.32;0.32;;;;;;;5.83;58.33;102394.09;5398724;26;20028;-80
2024/04/23 03:38:53;;;;;;;0.10;0.10;;;;;;;5.83;57.96;102399.34;5384163;26;20000;-79
2024/04/23 03:41:20;;;;;;;0.10;0.10;;;;;;;5.82;58.45;102394.94;5405781;26;20010;-80
2024/04/23 03:43:46;;;;;;;0.10;0.10;;;;;;;5.81;58.85;102398.41;5421455;26;20007;-80
2024/04/23 03:46:12;;;;;;;0.10;0.10;;;;;;;5.80;57.65;102396.63;5412447;26;20536;-79
2024/04/23 03:48:38;;;;;;;0.10;0.10;;;;;;;5.78;58.26;102382.56;5402773;26;19996;-80
2024/04/23 03:51:05;;;;;;;0.10;0.10;;;;;;;5.76;58.29;102381.63;5393164;26;20032;-80
2024/04/23 03:53:32;;;;;;;0.10;0.10;;;;;;;5.75;58.07;102379.84;5389745;26;20004;-79
2024/04/23 03:55:58;;;;;;;0.10;0.10;;;;;;;5.74;58.18;102388.59;5389796;26;20012;-80
2024/04/23 03:58:24;;;;;;;1.10;1.00;;;;;;;5.74;57.83;102385.94;5376246;26;20051;-79
2024/04/23 04:00:50;;;;;;;0.10;0.10;;;;;;;5.71;58.53;102384.97;5381302;26;20093;-79
2024/04/23 04:06:04;;;;;;;0.30;0.30;;;;;;;5.65;58.99;102378.72;5401088;26;20000;-80
2024/04/23 04:08:31;;;;;;;0.10;0.10;;;;;;;5.62;59.21;102383.00;5389746;26;20010;-80
2024/04/23 04:10:57;;;;;;;0.10;0.10;;;;;;;5.57;59.07;102380.28;5385735;26;20417;-76
2024/04/23 04:13:23;;;;;;;0.10;0.10;;;;;;;5.53;59.11;102385.41;5402597;26;19991;-79
2024/04/23 04:15:50;;;;;;;0.10;0.10;;;;;;;5.50;58.99;102387.13;5391440;26;20004;-79
2024/04/23 04:18:16;;;;;;;0.10;0.10;;;;;;;5.46;59.17;102382.63;5411691;26;20466;-78
2024/04/23 04:20:42;;;;;;;0.10;0.10;;;;;;;5.44;59.33;102384.31;5395901;26;19997;-78
2024/04/23 04:23:08;;;;;;;0.20;0.20;;;;;;;5.45;59.72;102385.22;5391733;26;20019;-76
2024/04/23 04:25:35;;;;;;;0.10;0.10;;;;;;;5.44;59.39;102381.69;5402503;26;19991;-79
2024/04/23 04:28:01;;;;;;;0.10;0.10;;;;;;;5.44;58.60;102376.44;5403192;26;19991;-79
2024/04/23 04:30:27;;;;;;;0.10;0.10;;;;;;;5.41;59.63;102384.25;5398618;26;20065;-79
2024/04/23 04:32:53;;;;;;;0.10;0.10;;;;;;;5.41;59.57;102383.34;5407244;26;20454;-78
2024/04/23 04:35:19;;;;;;;0.10;0.10;;;;;;;5.40;59.85;102381.59;5392008;26;19996;-77
2024/04/23 04:37:46;;;;;;;0.10;0.10;;;;;;;5.41;59.23;102376.38;5392997;26;20010;-79
2024/04/23 04:40:12;;;;;;;0.10;0.10;;;;;;;5.42;60.01;102380.78;5401856;26;20032;-79
2024/04/23 04:42:38;;;;;;;0.10;0.10;;;;;;;5.40;61.22;102382.47;5405264;26;20040;-79
2024/04/23 04:45:05;;;;;;;0.80;0.80;;;;;;;5.40;60.84;102381.59;5394355;26;20403;-79
2024/04/23 04:47:31;;;;;;;0.10;0.10;;;;;;;5.39;61.42;102378.06;5415591;26;20078;-78
2024/04/23 04:49:57;;;;;;;0.10;0.10;;;;;;;5.41;60.27;102378.09;5385763;26;19996;-77
2024/04/23 04:52:23;;;;;;;0.10;0.10;;;;;;;5.39;60.65;102379.81;5411380;26;20012;-76
2024/04/23 04:54:49;;;;;;;0.85;0.70;;;;;;;5.40;60.55;102374.59;5398450;26;19996;-79
2024/04/23 04:57:15;;;;;;;0.10;0.10;;;;;;;5.40;60.90;102373.72;5403803;26;20014;-76
2024/04/23 04:59:42;;;;;;;0.10;0.10;;;;;;;5.43;59.99;102382.56;5390430;26;20462;-77
2024/04/23 05:02:08;;;;;;;0.10;0.10;;;;;;;5.43;61.50;102382.56;5395498;26;20050;-76
2024/04/23 05:04:34;;;;;;;0.10;0.10;;;;;;;5.46;61.32;102377.38;5391544;26;20000;-77
2024/04/23 05:07:00;;;;;;;0.10;0.10;;;;;;;5.46;62.03;102380.00;5383103;26;20007;-79
2024/04/23 05:09:27;;;;;;;0.30;0.30;;;;;;;5.50;61.74;102384.47;5370749;26;20070;-79
2024/04/23 05:11:53;;;;;;;0.10;0.10;;;;;;;5.54;61.45;102382.81;5382645;26;20004;-79
2024/04/23 05:14:20;;;;;;;0.10;0.10;;;;;;;5.58;61.28;102379.44;5385403;26;20016;-76
2024/04/23 05:16:46;;;;;;;1.38;1.27;;;;;;;5.63;61.82;102384.78;5383327;26;20040;-77
2024/04/23 05:19:12;;;;;;;0.10;0.10;;;;;;;5.67;61.44;102378.78;5392080;26;20011;-77
2024/04/23 05:21:38;;;;;;;0.10;0.10;;;;;;;5.70;61.24;102373.59;5393939;26;20008;-78
2024/04/23 05:24:05;;;;;;;0.10;0.10;;;;;;;5.73;60.63;102378.94;5407430;26;20074;-78
2024/04/23 05:26:31;;;;;;;0.63;0.63;;;;;;;5.77;61.00;102382.50;5407215;26;20019;-76
2024/04/23 05:28:57;;;;;;;0.10;0.10;;;;;;;5.78;61.23;102379.94;5396062;26;19992;-80
2024/04/23 05:34:10;;;;;;;0.10;0.10;;;;;;;5.87;60.24;102378.38;5378484;26;20008;-80
2024/04/23 05:36:36;;;;;;;0.10;0.10;;;;;;;5.90;61.04;102379.34;5386608;26;20150;-79
2024/04/23 05:39:03;;;;;;;0.10;0.10;;;;;;;5.96;61.18;102378.59;5390708;26;20418;-78
2024/04/23 05:41:29;;;;;;;0.10;0.10;;;;;;;6.01;60.95;102392.78;5382593;26;20319;-79
2024/04/23 05:43:55;;;;;;;0.10;0.10;;;;;;;6.09;60.17;102390.31;5402877;26;20335;-78
2024/04/23 05:46:22;;;;;;;1.10;1.10;;;;;;;6.15;60.29;102386.09;5385820;26;20018;-77
2024/04/23 05:49:28;;;;;;;0.30;0.30;;;;;;;6.30;59.76;102390.81;5401657;26;20000;-80
2024/04/23 05:52:33;;;;;;;1.38;1.27;;;;;;;6.39;59.81;102389.25;5369363;26;20339;-81
2024/04/23 05:55:38;;;;;;;0.10;0.10;;;;;;;6.46;59.72;102392.03;5396495;26;20027;-81
2024/04/23 05:58:05;;;;;;;0.10;0.10;;;;;;;6.43;59.86;102392.00;5399696;26;19992;-80
2024/04/23 06:00:31;;;;;;;0.10;0.10;;;;;;;6.48;60.08;102392.97;5412716;26;20028;-78
2024/04/23 06:02:57;;;;;;;0.28;0.28;;;;;;;6.53;59.74;102390.47;5388107;26;20035;-79
2024/04/23 06:05:24;;;;;;;0.10;0.10;;;;;;;6.59;59.69;102392.31;5402462;26;20006;-80
2024/04/23 06:07:51;;;;;;;0.10;0.10;;;;;;;6.65;59.29;102402.97;5402122;26;19995;-79
2024/04/23 06:10:18;;;;;;;2.92;0.90;;;;;;;6.69;59.67;102393.41;5398516;26;20356;-78
2024/04/23 06:12:45;;;;;;;0.10;0.10;;;;;;;6.77;59.07;102390.06;5394283;26;19996;-78
2024/04/23 06:15:11;;;;;;;0.10;0.10;;;;;;;6.84;59.02;102393.75;5390315;26;20324;-79
2024/04/23 06:17:37;;;;;;;0.10;0.10;;;;;;;6.88;59.39;102390.31;5370432;26;20008;-81
2024/04/23 06:20:09;;;;;;;0.10;0.10;;;;;;;6.93;59.30;102386.00;5391174;26;20028;-81
2024/04/23 06:22:36;;;;;;;0.13;0.13;;;;;;;7.00;58.95;102387.00;5381012;26;20070;-83
2024/04/23 06:25:03;;;;;;;0.10;0.10;;;;;;;7.04;58.84;102386.22;5385306;26;19996;-81
2024/04/23 06:27:32;;;;;;;0.20;0.20;;;;;;;7.09;58.88;102387.19;5386176;26;20000;-79
2024/04/23 06:30:15;;;;;;;0.10;0.10;;;;;;;7.23;58.69;102384.81;5387744;26;19996;-78
2024/04/23 06:32:41;;;;;;;;;;;;;;;7.36;58.80;102399.09;5381307;26;20003;-82
2024/04/23 06:35:09;;;;;;;0.10;0.10;;;;;;;7.28;58.40;102377.88;5387987;26;20983;-82
2024/04/23 06:37:36;;;;;;;0.10;0.10;;;;;;;7.31;58.36;102390.22;5397516;26;20014;-83
2024/04/23 06:40:06;;;;;;;0.00;0.00;;;;;;;7.36;57.80;102388.56;5374991;26;19997;-81
2024/04/23 06:42:33;;;;;;;0.00;0.00;;;;;;;7.38;58.39;102384.22;5396650;26;20334;-81
2024/04/23 06:44:59;;;;;;;0.10;0.10;;;;;;;7.46;58.41;102376.44;5391105;26;19992;-80
2024/04/23 06:47:25;;;;;;;0.22;0.22;;;;;;;7.56;58.04;102380.13;5394638;26;20022;-81
2024/04/23 06:49:51;;;;;;;0.10;0.10;;;;;;;7.61;58.20;102373.16;5380755;26;20466;-83
2024/04/23 06:52:18;;;;;;;0.03;0.03;;;;;;;7.66;57.59;102371.50;5385752;26;20000;-81
2024/04/23 06:54:44;;;;;;;0.10;0.10;;;;;;;7.72;57.09;102366.31;5383574;26;20006;-84
2024/04/23 06:57:10;;;;;;;0.10;0.10;;;;;;;7.78;57.02;102362.91;5390154;26;20491;-83
2024/04/23 06:59:37;;;;;;;0.10;0.10;;;;;;;7.81;56.94;102365.56;5403721;26;20071;-83
2024/04/23 07:02:03;;;;;;;0.75;0.75;;;;;;;7.89;56.51;102373.66;5381129;26;20007;-84
2024/04/23 07:04:29;;;;;;;0.30;0.30;;;;;;;7.91;56.27;102363.97;5397584;26;19996;-81
2024/04/23 07:06:55;;;;;;;0.00;0.00;;;;;;;7.95;56.39;102363.19;5391559;26;20211;-77
2024/04/23 07:09:21;;;;;;;0.10;0.10;;;;;;;7.99;56.18;102365.00;5393830;26;20534;-79
2024/04/23 07:11:51;;;;;;;0.10;0.10;;;;;;;8.10;56.05;102366.03;5384908;26;20586;-78
2024/04/23 07:14:17;;;;;;;0.10;0.10;;;;;;;8.13;55.41;102361.69;5390842;26;19997;-79
2024/04/23 07:16:46;;;;;;;0.20;0.20;;;;;;;8.24;55.60;102365.38;5378765;26;20004;-79
2024/04/23 07:19:12;;;;;;;4.10;0.90;;;;;;;8.25;55.15;102367.13;5361203;26;20466;-79
2024/04/23 07:21:38;;;;;;;0.55;0.55;;;;;;;8.32;55.18;102362.81;5375045;26;20023;-80
2024/04/23 07:24:05;;;;;;;0.28;0.28;;;;;;;8.35;54.69;102361.13;5391019;26;20014;-80
2024/04/23 07:26:31;;;;;;;0.10;0.10;;;;;;;8.43;54.23;102359.44;5401260;26;20315;-80
2024/04/23 07:28:58;;;;;;;0.13;0.13;;;;;;;8.52;54.66;102356.09;5378887;26;20015;-80
2024/04/23 07:31:24;;;;;;;0.00;0.00;;;;;;;8.61;54.44;102355.31;5389302;26;20590;-81
2024/04/23 07:33:50;;;;;;;0.10;0.10;;;;;;;8.68;54.31;102357.16;5381797;26;19996;-80
2024/04/23 07:36:16;;;;;;;0.10;0.10;;;;;;;8.77;54.28;102351.09;5393502;26;20001;-77
2024/04/23 07:38:42;;;;;;;0.10;0.10;;;;;;;8.84;53.76;102354.72;5382898;26;19996;-79
2024/04/23 07:41:09;;;;;;;0.10;0.10;;;;;;;8.93;53.39;102340.72;5390681;26;20007;-80
2024/04/23 07:43:35;;;;;;;0.10;0.10;;;;;;;9.07;53.83;102344.38;5394430;26;20521;-81
2024/04/23 07:46:01;;;;;;;0.13;0.13;;;;;;;9.18;53.46;102344.47;5382621;26;20012;-81
2024/04/23 07:48:27;;;;;;;0.10;0.10;;;;;;;9.23;52.46;102340.13;5381547;26;20002;-80
2024/04/23 07:50:53;;;;;;;0.00;0.00;;;;;;;9.35;52.17;102334.94;5381588;26;20008;-80
2024/04/23 07:53:19;;;;;;;0.10;0.10;;;;;;;9.52;52.28;102339.50;5401126;26;20373;-80
2024/04/23 07:55:45;;;;;;;0.10;0.10;;;;;;;9.55;51.55;102332.47;5381311;26;20448;-80
2024/04/23 07:58:12;;;;;;;0.10;0.10;;;;;;;9.79;52.27;102330.88;5386724;26;20015;-81
2024/04/23 08:00:38;;;;;;;0.10;0.10;;;;;;;9.87;51.24;102333.59;5381842;26;20327;-79
2024/04/23 08:03:07;;;;;;;0.30;0.30;;;;;;;10.03;52.28;102335.47;5384607;26;20775;-83
2024/04/23 08:05:33;;;;;;;0.10;0.10;;;;;;;10.07;51.47;102327.53;5387950;26;20007;-82
2024/04/23 08:07:59;;;;;;;0.10;0.10;;;;;;;10.20;51.65;102337.31;5369658;26;20467;-81
2024/04/23 08:10:25;;;;;;;0.05;0.05;;;;;;;10.32;51.16;102336.53;5385907;26;19996;-83
2024/04/23 08:12:53;;;;;;;0.10;0.10;;;;;;;10.44;51.17;102330.41;5391998;26;20001;-85
2024/04/23 08:15:19;;;;;;;0.30;0.30;;;;;;;10.55;50.95;102327.81;5407214;26;19999;-81
2024/04/23 08:17:48;;;;;;;0.20;0.20;;;;;;;10.64;49.38;102322.53;5397042;26;20082;-82
2024/04/23 08:20:14;;;;;;;0.10;0.10;;;;;;;10.78;49.71;102328.78;5387393;26;20014;-82
2024/04/23 08:22:40;;;;;;;0.00;0.00;;;;;;;10.90;48.06;102322.59;5392359;26;19995;-80
2024/04/23 08:25:09;;;;;;;0.10;0.10;;;;;;;11.04;47.31;102319.09;5373635;26;20061;-79
2024/04/23 08:27:36;;;;;;;0.10;0.10;;;;;;;11.16;45.75;102316.47;5393787;26;20490;-79
2024/04/23 08:30:03;;;;;;;0.00;0.00;;;;;;;11.25;48.32;102324.47;5371504;26;20008;-80
2024/04/23 08:32:29;;;;;;;0.65;0.65;;;;;;;11.27;48.76;102314.72;5390308;26;20009;-81
2024/04/23 08:34:56;;;;;;;0.03;0.03;;;;;;;11.30;46.62;102313.84;5368221;26;20025;-81
2024/04/23 08:37:22;;;;;;;0.10;0.10;;;;;;;11.35;46.63;102311.19;5381852;26;20342;-79
2024/04/23 08:39:48;;;;;;;0.10;0.10;;;;;;;11.36;44.44;102307.66;5389595;26;20007;-80
2024/04/23 08:42:15;;;;;;;0.20;0.20;;;;;;;11.42;46.16;102316.50;5390338;26;20064;-82
2024/04/23 08:44:43;;;;;;;0.10;0.10;;;;;;;11.42;45.69;102312.97;5378775;26;20013;-80
2024/04/23 08:47:11;;;;;;;0.32;0.32;;;;;;;11.45;43.81;102312.94;5387424;26;19996;-81
2024/04/23 08:49:38;;;;;;;0.25;0.25;;;;;;;11.44;43.43;102311.19;5371834;26;20569;-81
2024/04/23 08:52:07;;;;;;;0.10;0.10;;;;;;;11.52;45.43;102308.53;5392223;26;20000;-79
2024/04/23 08:54:33;;;;;;;0.00;0.00;;;;;;;11.43;45.25;102301.47;5382595;26;19997;-80
2024/04/23 08:57:00;;;;;;;0.10;0.10;;;;;;;11.56;45.51;102310.31;5389675;26;19996;-77
2024/04/23 08:59:30;;;;;;;0.10;0.10;;;;;;;11.67;42.82;102305.88;5389446;26;20442;-77
2024/04/23 09:02:04;;;;;;;0.05;0.05;;;;;;;11.80;44.16;102304.06;5371661;26;20001;-80
2024/04/23 09:04:31;;;;;;;0.10;0.10;;;;;;;11.82;41.81;102302.31;5400229;26;20000;-78
2024/04/23 09:06:58;;;;;;;0.10;0.10;;;;;;;11.92;43.17;102293.41;5385073;26;19996;-80
2024/04/23 09:09:26;;;;;;;0.10;0.10;;;;;;;12.02;42.76;102283.69;5369519;26;20017;-80
2024/04/23 09:11:52;;;;;;;0.10;0.10;;;;;;;12.09;39.93;102284.56;5380790;26;20073;-79
2024/04/23 09:14:19;;;;;;;0.10;0.10;;;;;;;12.20;42.83;102280.09;5394290;26;20011;-78
2024/04/23 09:16:45;;;;;;;0.10;0.10;;;;;;;12.23;42.77;102276.56;5389010;26;20004;-79
2024/04/23 09:19:11;;;;;;;0.10;0.10;;;;;;;12.24;43.06;102279.19;5392952;26;20259;-80
2024/04/23 09:21:37;;;;;;;1.33;1.27;;;;;;;12.33;43.73;102270.31;5407626;26;20035;-79
2024/04/23 09:24:04;;;;;;;2.63;0.52;;;;;;;12.42;42.22;102261.41;5393061;26;20441;-77
2024/04/23 09:26:31;;;;;;;0.10;0.10;;;;;;;12.53;43.17;102262.22;5383344;26;20003;-79
2024/04/23 09:28:58;;;;;;;0.10;0.10;;;;;;;12.47;41.22;102259.59;5375393;26;20000;-79
2024/04/23 09:31:24;;;;;;;0.10;0.10;;;;;;;12.53;41.05;102259.56;5397140;26;20392;-77
2024/04/23 09:36:30;;;;;;;0.08;0.08;;;;;;;12.62;42.56;102262.19;5461147;26;20348;-78
2024/04/23 09:38:58;;;;;;;0.63;0.63;;;;;;;12.57;38.98;102255.13;5434103;26;20003;-80
2024/04/23 09:41:26;;;;;;;0.10;0.10;;;;;;;12.66;42.19;102248.84;5425415;26;20075;-80
2024/04/23 09:43:55;;;;;;;0.10;0.10;;;;;;;12.70;41.83;102240.00;5421488;26;19995;-80
2024/04/23 09:46:22;;;;;;;0.10;0.10;;;;;;;12.69;41.42;102238.22;5408088;26;20004;-81
2024/04/23 09:48:51;;;;;;;0.10;0.10;;;;;;;12.72;39.14;102227.53;5418386;26;20083;-80
2024/04/23 09:51:19;;;;;;;0.13;0.13;;;;;;;12.85;41.02;102231.91;5412575;26;20375;-80
2024/04/23 09:53:47;;;;;;;0.10;0.10;;;;;;;12.93;39.58;102227.41;5400148;26;19993;-82
2024/04/23 09:56:19;;;;;;;0.10;0.10;;;;;;;13.13;39.60;102231.66;5417144;26;20021;-80
2024/04/23 09:58:47;;;;;;;0.20;0.20;;;;;;;13.23;39.54;102220.06;5397985;26;20003;-81
2024/04/23 10:01:17;;;;;;;0.10;0.10;;;;;;;13.27;38.21;102226.22;5403468;26;20065;-80
2024/04/23 10:03:44;;;;;;;0.08;0.08;;;;;;;13.36;38.41;102219.97;5408606;26;20031;-80
2024/04/23 10:06:17;;;;;;;0.10;0.10;;;;;;;13.37;36.92;102211.97;5410604;26;20466;-81
2024/04/23 10:11:27;;;;;;;0.20;0.20;;;;;;;13.56;36.79;102204.69;5491448;25;20338;-81
2024/04/23 10:14:01;;;;;;;0.10;0.10;;;;;;;13.68;38.28;102194.78;5429079;26;20000;-81
2024/04/23 10:19:09;;;;;;;0.68;0.68;;;;;;;13.87;36.92;102199.00;5473678;25;20344;-82
2024/04/23 10:21:39;;;;;;;0.17;0.17;;;;;;;13.95;34.04;102201.56;5462003;26;19990;-82
2024/04/23 10:24:08;;;;;;;0.10;0.10;;;;;;;13.87;33.94;102196.34;5471347;26;19995;-83
2024/04/23 10:26:39;;;;;;;0.20;0.20;;;;;;;13.58;35.83;102199.31;5451236;26;20318;-83
2024/04/23 10:29:07;;;;;;;0.10;0.10;;;;;;;13.42;34.72;102199.50;5476749;26;20002;-81
2024/04/23 10:31:34;;;;;;;0.10;0.10;;;;;;;13.26;36.10;102204.06;5454334;26;20038;-85
2024/04/23 10:34:02;;;;;;;1.75;1.05;;;;;;;13.19;36.88;102201.47;5483214;26;20005;-82
2024/04/23 10:36:30;;;;;;;0.10;0.10;;;;;;;13.03;36.84;102195.41;5460201;26;20006;-82
2024/04/23 10:38:59;;;;;;;0.10;0.10;;;;;;;12.95;37.01;102198.13;5483092;25;20001;-82
2024/04/23 10:41:26;;;;;;;0.10;0.10;;;;;;;12.98;37.10;102194.56;5455904;25;20003;-82
2024/04/23 10:43:54;;;;;;;0.15;0.15;;;;;;;13.06;36.81;102196.25;5461257;26;20006;-83
2024/04/23 10:46:21;;;;;;;0.10;0.10;;;;;;;13.11;37.39;102190.91;5453619;26;20003;-85
2024/04/23 10:48:56;;;;;;;0.00;0.00;;;;;;;13.24;37.37;102187.22;5466938;26;19998;-83
2024/04/23 10:51:25;;;;;;;0.10;0.10;;;;;;;13.14;36.74;102182.88;5471757;26;20074;-82
2024/04/23 10:53:52;;;;;;;0.30;0.30;;;;;;;13.09;36.13;102188.22;5448866;26;20502;-82
2024/04/23 10:56:26;;;;;;;0.10;0.10;;;;;;;13.21;36.33;102179.28;5456027;26;20189;-81
2024/04/23 10:59:16;;;;;;;0.75;0.75;;;;;;;13.50;36.89;102178.13;5474685;26;20087;-81
2024/04/23 11:04:34;;;;;;;0.00;0.00;;;;;;;13.80;35.62;102162.69;5470879;26;20344;-81
2024/04/23 11:07:04;;;;;;;0.00;0.00;;;;;;;13.69;35.29;102169.91;5390846;26;20009;-81
2024/04/23 11:14:56;;;;;;;0.10;0.10;;;;;;;13.58;34.40;102159.38;5510508;25;20330;-80
2024/04/23 11:17:22;;;;;;;0.10;0.10;;;;;;;13.78;33.50;102156.47;5476946;26;20012;-78
2024/04/23 11:19:56;;;;;;;0.00;0.00;;;;;;;14.05;34.48;102147.25;5473101;26;20057;-78
2024/04/23 11:22:32;;;;;;;0.05;0.05;;;;;;;14.35;33.98;102149.50;5468501;26;20002;-78
2024/04/23 11:25:04;;;;;;;0.00;0.00;;;;;;;14.35;33.89;102144.19;5432453;26;20092;-80
2024/04/23 11:27:31;;;;;;;0.00;0.00;;;;;;;14.41;33.99;102149.41;5416728;26;20388;-80
2024/04/23 11:29:57;;;;;;;0.10;0.10;;;;;;;14.34;34.06;102148.63;5445589;26;20007;-78
2024/04/23 11:32:24;;;;;;;0.00;0.00;;;;;;;14.43;34.23;102136.06;5450452;26;19991;-79
2024/04/23 11:34:50;;;;;;;0.00;0.00;;;;;;;14.49;33.36;102133.28;5431371;26;20350;-79
2024/04/23 11:37:31;;;;;;;0.10;0.10;;;;;;;14.68;33.66;102132.13;5429065;26;20007;-79
2024/04/23 11:39:59;;;;;;;0.00;0.00;;;;;;;14.69;33.81;102127.66;5424450;26;20062;-79
2024/04/23 11:42:27;;;;;;;0.10;0.10;;;;;;;14.78;33.34;102123.97;5430507;26;20035;-81
2024/04/23 11:44:57;;;;;;;0.10;0.10;;;;;;;14.91;33.66;102122.84;5435268;26;20568;-80
2024/04/23 11:47:25;;;;;;;0.00;0.00;;;;;;;14.94;32.84;102112.13;5434578;26;20023;-80
2024/04/23 11:49:52;;;;;;;0.05;0.05;;;;;;;15.04;32.95;102107.47;5434266;26;20003;-79
2024/04/23 11:52:21;;;;;;;0.10;0.10;;;;;;;15.05;31.90;102106.56;5434374;26;20003;-80
2024/04/23 11:54:47;;;;;;;0.00;0.00;;;;;;;15.06;32.21;102105.69;5416025;26;20004;-81
2024/04/23 11:57:15;;;;;;;0.00;0.00;;;;;;;15.23;32.17;102107.13;5420528;26;20743;-78